Toledo, OH (43660)

1:26 PM EST on December 25, 2014 (GMT -0500)
Oregon, Ohio. | Change Station
CLOSE
Current Station
Personal Weather Station
Location: Oregon, OH
Elevation: 610 ft
Nearby Weather Stations

Elev 610 ft 41.63 °N, 83.45 °W | Updated 2 seconds ago

Overcast
Overcast
38.2 °F
Feels Like 30 °F
N
15.0
Wind Variable Wind from West
Gusts 17.0 mph

Today
High -- | Low -- °F
--% Chance of Precip.
Yesterday
High -- | Low -- °F
Precip. -- in
7:59 AM 5:09 PM
Waxing Crescent, 18% visible
Pressure 30.02 in
Visibility 10.0 miles
Clouds Overcast 2600 ft
Windchill 30 °F
Dew Point 29 °F
Humidity 68%
Rainfall 0.00 in
Snow Depth Not available.
UV 0.5 out of 12
Pollen .10 out of 12
Air Quality Not available.
Flu Activity Not available.
METAR KTDZ 251753Z AUTO 24020G25KT 10SM OVC026 04/M02 A3001 RMK AO2 PK WND 23026/1743 SLP166 T00391022 10044 20033 51026 TSNO

More Conditions Fewer Conditions

Pressure 30.02 in
Visibility 10.0 miles
Clouds Overcast 2600 ft
Windchill 30 °F
Dew Point 29 °F
Humidity 68%
Rainfall 0.00 in
Snow Depth Not available.
UV 0.5 out of 12
Pollen .10 out of 12
Air Quality Not available.
Flu Activity Not available.
METAR KTDZ 251753Z AUTO 24020G25KT 10SM OVC026 04/M02 A3001 RMK AO2 PK WND 23026/1743 SLP166 T00391022 10044 20033 51026 TSNO

More Conditions Fewer Conditions

10-Day Weather Forecast

Almanac

Astronomy

Dec. 25, 2014 Rise Set
Actual Time
Civil Twilight
Nautical Twilight
Astronomical Twilight
Moon
Length of Visible Light
Length of Day
Tomorrow will be .
, % of the Moon is Illuminated

Today's Extremes

State Highs State Lows

Community

WunderPhotos

Upload Photos

1,780,353 photos uploaded!

WunderBlogs® & News

Nearby

Air Quality

  Air Quality AQ Index Pollutant
Not available.

Snow Depth

Station Depth Elevation

Earthquake Activity

City Distance Mag. Time & Date
Minimum magnitude displayed is 2.5.

Coastal Water Temperatures

Place Temperature

Nearby Weather Stations